Time;durP1;ratioP1;P1;durP2;ratioP2;P2;SDS_P1;SDS_P2;PMS_P1;PMS_P2;Temp;Humidity;BMP_temperature;BMP_pressure;BME280_temperature;BME280_humidity;BME280_pressure;Samples;Min_cycle;Max_cycle;Signal;HPM_P1;HPM_P2
2021/07/11 00:00:50;;;;;;;9.93;6.60;;;;;;;16.21;74.49;100711.91;5043214;28;20107;-43
2021/07/11 00:03:16;;;;;;;14.30;6.80;;;;;;;16.19;74.55;100705.91;5054101;28;20061;-53
2021/07/11 00:05:43;;;;;;;10.60;6.60;;;;;;;16.18;74.83;100698.69;5049330;28;20050;-46
2021/07/11 00:08:10;;;;;;;13.38;7.72;;;;;;;16.14;75.30;100697.06;5046825;28;20052;-47
2021/07/11 00:10:37;;;;;;;15.25;8.38;;;;;;;16.11;75.56;100704.22;5045756;28;20525;-45
2021/07/11 00:13:04;;;;;;;14.98;8.48;;;;;;;16.13;75.74;100703.81;5046772;28;20124;-44
2021/07/11 00:15:33;;;;;;;13.55;8.15;;;;;;;16.04;76.62;100692.16;5028869;28;20793;-48
2021/07/11 00:18:02;;;;;;;11.48;7.97;;;;;;;16.02;76.58;100695.34;5040223;28;20134;-43
2021/07/11 00:20:29;;;;;;;13.02;8.18;;;;;;;16.02;76.92;100684.16;5043463;28;20550;-51
2021/07/11 00:22:56;;;;;;;13.75;7.95;;;;;;;16.04;76.69;100681.81;5043051;28;20056;-46
2021/07/11 00:25:23;;;;;;;13.57;8.70;;;;;;;16.05;76.88;100688.97;5043407;28;20458;-46
2021/07/11 00:27:50;;;;;;;12.02;8.15;;;;;;;16.05;76.88;100675.03;5044878;28;20072;-47
2021/07/11 00:30:18;;;;;;;14.98;8.20;;;;;;;16.08;77.10;100668.66;5043866;28;20080;-43
2021/07/11 00:32:45;;;;;;;17.55;8.57;;;;;;;16.02;77.36;100667.41;5045991;28;20054;-43
2021/07/11 00:35:12;;;;;;;13.45;8.80;;;;;;;16.02;77.36;100675.78;5045055;28;20168;-43
2021/07/11 00:37:41;;;;;;;19.33;8.80;;;;;;;15.97;77.60;100687.31;5044734;28;20383;-44
2021/07/11 00:40:10;;;;;;;20.45;9.73;;;;;;;15.92;77.68;100689.63;5046453;28;20742;-49
2021/07/11 00:42:37;;;;;;;18.23;10.35;;;;;;;15.87;78.21;100690.78;5044040;28;20103;-45
2021/07/11 00:45:05;;;;;;;17.80;7.70;;;;;;;15.88;78.22;100692.41;5044922;28;21938;-49
2021/07/11 00:47:32;;;;;;;20.15;9.23;;;;;;;15.92;78.24;100690.44;5043704;28;20402;-47
2021/07/11 00:49:58;;;;;;;17.98;8.73;;;;;;;15.89;78.44;100687.59;5043273;28;20057;-49
2021/07/11 00:52:25;;;;;;;18.75;8.65;;;;;;;15.89;78.76;100688.41;5043921;28;20417;-49
2021/07/11 00:54:52;;;;;;;17.65;8.93;;;;;;;15.85;78.95;100690.38;5042726;28;20048;-43
2021/07/11 00:57:19;;;;;;;14.95;8.55;;;;;;;15.89;78.97;100695.97;5045283;28;20469;-50
2021/07/11 00:59:46;;;;;;;17.10;9.38;;;;;;;15.91;79.20;100699.22;5043975;28;20128;-46
2021/07/11 01:02:56;;;;;;;14.45;8.30;;;;;;;15.93;79.51;100697.66;5042481;28;20077;-44
2021/07/11 01:05:25;;;;;;;12.38;8.38;;;;;;;16.02;78.71;100691.75;5045719;28;20055;-44
2021/07/11 01:08:00;;;;;;;15.32;7.93;;;;;;;16.02;78.68;100695.34;5040901;28;20051;-44
2021/07/11 01:10:32;;;;;;;15.88;7.25;;;;;;;16.08;78.67;100699.38;5044597;28;20533;-43
2021/07/11 01:13:00;;;;;;;12.57;7.30;;;;;;;16.12;78.55;100699.44;5040107;28;20099;-43
2021/07/11 01:15:30;;;;;;;14.20;6.90;;;;;;;16.12;78.48;100694.66;5043850;28;20830;-52
2021/07/11 01:18:01;;;;;;;11.70;6.55;;;;;;;16.13;78.57;100685.06;5042004;28;20041;-44
2021/07/11 01:20:33;;;;;;;12.60;6.60;;;;;;;16.20;78.27;100684.34;5041965;28;20068;-45
2021/07/11 01:23:01;;;;;;;11.00;5.75;;;;;;;16.23;78.13;100673.19;5042615;28;20084;-48
2021/07/11 01:25:35;;;;;;;12.05;6.25;;;;;;;16.26;78.03;100672.44;5044298;28;20144;-52
2021/07/11 01:28:04;;;;;;;13.05;6.05;;;;;;;16.30;77.91;100678.88;5044612;28;20055;-49
2021/07/11 01:30:32;;;;;;;12.95;6.50;;;;;;;16.33;77.52;100671.72;5043282;28;20159;-44
2021/07/11 01:33:02;;;;;;;10.48;7.40;;;;;;;16.34;77.64;100673.28;5040157;28;20076;-44
2021/07/11 01:35:30;;;;;;;11.50;5.60;;;;;;;16.30;77.61;100673.28;5042014;28;20141;-44
2021/07/11 01:37:58;;;;;;;13.07;6.30;;;;;;;16.33;77.42;100675.31;5045933;28;20049;-46
2021/07/11 01:40:27;;;;;;;13.50;6.78;;;;;;;16.33;77.34;100669.72;5044464;28;20082;-43
2021/07/11 01:42:54;;;;;;;9.10;6.10;;;;;;;16.36;77.17;100677.31;5042197;28;21244;-43
2021/07/11 01:45:21;;;;;;;11.38;6.60;;;;;;;16.38;77.10;100674.94;5041150;28;20509;-48
2021/07/11 01:47:49;;;;;;;12.57;6.30;;;;;;;16.38;77.18;100671.34;5045223;28;20404;-45
2021/07/11 01:50:16;;;;;;;8.82;5.93;;;;;;;16.39;77.13;100678.53;5041995;28;20568;-43
2021/07/11 01:52:45;;;;;;;10.68;6.30;;;;;;;16.38;77.25;100669.38;5041980;28;20466;-44
2021/07/11 01:55:13;;;;;;;8.05;6.25;;;;;;;16.37;77.21;100661.34;5044365;28;20047;-50
2021/07/11 01:57:39;;;;;;;9.80;6.65;;;;;;;16.40;77.24;100672.56;5023765;28;20052;-44
2021/07/11 02:00:08;;;;;;;7.07;5.32;;;;;;;16.41;77.15;100665.78;5042029;28;20144;-48
2021/07/11 02:02:35;;;;;;;9.82;5.63;;;;;;;16.43;77.14;100662.59;5038884;28;20139;-46
2021/07/11 02:05:06;;;;;;;10.52;6.22;;;;;;;16.47;77.09;100654.25;5039590;28;20071;-50
2021/07/11 02:07:32;;;;;;;8.98;6.03;;;;;;;16.54;76.83;100657.13;5039085;28;20048;-43
2021/07/11 02:10:00;;;;;;;8.25;5.75;;;;;;;16.53;76.82;100659.13;5038315;28;20521;-43
2021/07/11 02:12:31;;;;;;;10.43;6.00;;;;;;;16.50;76.84;100662.66;5040584;28;20040;-43
2021/07/11 02:15:01;;;;;;;9.90;5.63;;;;;;;16.43;76.98;100655.03;5042872;28;20048;-48
2021/07/11 02:17:30;;;;;;;8.02;5.13;;;;;;;16.44;76.91;100653.03;5039516;28;20148;-44
2021/07/11 02:20:01;;;;;;;9.20;4.88;;;;;;;16.44;77.03;100651.03;5041574;28;20441;-45
2021/07/11 02:22:28;;;;;;;8.88;5.55;;;;;;;16.43;77.03;100645.84;5042395;28;20083;-46
2021/07/11 02:24:56;;;;;;;8.65;5.80;;;;;;;16.41;77.11;100629.44;5043802;28;20053;-48
2021/07/11 02:27:25;;;;;;;8.13;5.63;;;;;;;16.38;77.27;100640.63;5040316;28;20119;-50
2021/07/11 02:29:55;;;;;;;13.77;6.28;;;;;;;16.38;77.33;100629.44;5042151;28;20502;-43
2021/07/11 02:32:27;;;;;;;15.82;6.80;;;;;;;16.39;77.42;100634.63;5040419;28;20988;-44
2021/07/11 02:34:54;;;;;;;9.43;5.90;;;;;;;16.37;77.67;100639.81;5043485;28;20052;-45
2021/07/11 02:37:22;;;;;;;7.97;5.50;;;;;;;16.36;77.91;100638.19;5046606;28;20135;-43
2021/07/11 02:39:52;;;;;;;8.88;4.97;;;;;;;16.36;77.74;100646.56;5041660;28;20048;-43
2021/07/11 02:42:21;;;;;;;7.13;4.55;;;;;;;16.36;77.65;100638.19;5042903;28;20056;-47
2021/07/11 02:44:52;;;;;;;10.23;4.75;;;;;;;16.36;77.72;100637.41;5040400;28;20087;-49
2021/07/11 02:47:25;;;;;;;7.13;3.67;;;;;;;16.35;77.68;100635.78;5041466;28;20052;-44
2021/07/11 02:49:55;;;;;;;4.80;4.00;;;;;;;16.34;77.39;100629.41;5039619;28;20063;-44
2021/07/11 02:52:23;;;;;;;5.28;4.13;;;;;;;16.33;77.56;100622.22;5042119;28;20049;-44
2021/07/11 02:55:06;;;;;;;5.85;3.78;;;;;;;16.29;77.89;100612.19;5040252;28;20063;-49
2021/07/11 02:57:36;;;;;;;8.48;3.88;;;;;;;16.29;77.48;100614.97;5043118;28;20137;-44
2021/07/11 03:00:07;;;;;;;6.63;4.07;;;;;;;16.29;77.58;100615.78;5038809;28;20404;-48
2021/07/11 03:02:35;;;;;;;6.22;3.67;;;;;;;16.29;77.40;100618.59;5042341;28;20731;-46
2021/07/11 03:05:03;;;;;;;7.35;4.05;;;;;;;16.29;77.62;100626.97;5042292;28;20512;-45
2021/07/11 03:07:30;;;;;;;5.22;3.90;;;;;;;16.30;77.52;100617.41;5037748;28;20041;-44
2021/07/11 03:09:57;;;;;;;4.75;3.90;;;;;;;16.29;77.52;100618.59;5045434;28;20502;-44
2021/07/11 03:12:25;;;;;;;5.18;3.50;;;;;;;16.33;77.58;100616.63;5043779;28;20138;-49
2021/07/11 03:14:53;;;;;;;4.55;3.72;;;;;;;16.41;77.42;100615.47;5039279;28;20393;-44
2021/07/11 03:17:24;;;;;;;3.78;3.42;;;;;;;16.43;77.37;100627.09;5041647;28;20056;-50
2021/07/11 03:19:53;;;;;;;5.10;3.95;;;;;;;16.47;77.35;100626.31;5020887;28;20114;-47
2021/07/11 03:22:23;;;;;;;3.22;2.75;;;;;;;16.48;77.12;100622.31;5037320;28;20776;-51
2021/07/11 03:24:50;;;;;;;5.97;2.75;;;;;;;16.55;77.18;100623.19;5041641;28;20075;-44
2021/07/11 03:27:17;;;;;;;5.13;2.58;;;;;;;16.60;76.81;100622.81;5046521;28;20055;-49
2021/07/11 03:29:54;;;;;;;4.30;2.58;;;;;;;16.63;76.79;100624.03;5028866;28;20049;-53
2021/07/11 03:32:22;;;;;;;5.22;3.58;;;;;;;16.67;76.62;100624.88;5045067;28;20064;-51
2021/07/11 03:34:52;;;;;;;3.85;2.33;;;;;;;16.64;76.67;100628.44;5042394;28;20114;-43
2021/07/11 03:37:22;;;;;;;3.78;2.45;;;;;;;16.63;76.53;100630.44;5042848;28;20053;-45
2021/07/11 03:39:50;;;;;;;3.30;2.05;;;;;;;16.62;76.75;100623.25;5046221;28;20055;-44
2021/07/11 03:42:19;;;;;;;3.00;2.47;;;;;;;16.63;76.70;100618.44;5042936;28;20409;-43
2021/07/11 03:44:51;;;;;;;4.80;3.13;;;;;;;16.61;76.51;100623.63;5042612;28;20139;-44
2021/07/11 03:47:23;;;;;;;5.05;2.80;;;;;;;16.63;76.59;100626.84;5047104;28;20084;-43
2021/07/11 03:49:53;;;;;;;4.60;3.13;;;;;;;16.67;76.52;100624.88;5044343;28;20041;-43
2021/07/11 03:52:25;;;;;;;6.68;2.67;;;;;;;16.66;76.50;100631.66;5046889;28;20064;-43
2021/07/11 03:54:53;;;;;;;4.53;2.28;;;;;;;16.64;76.63;100625.66;5041538;28;20049;-44
2021/07/11 03:57:22;;;;;;;6.78;3.35;;;;;;;16.64;76.65;100631.25;5045996;28;20071;-48
2021/07/11 03:59:51;;;;;;;6.20;3.85;;;;;;;16.63;76.46;100624.84;5024605;28;20117;-52
2021/07/11 04:02:18;;;;;;;4.10;3.10;;;;;;;16.64;76.46;100625.66;5043651;28;20059;-43
2021/07/11 04:04:48;;;;;;;4.68;3.60;;;;;;;16.65;76.33;100616.09;5041926;28;20114;-44
2021/07/11 04:07:19;;;;;;;4.45;3.10;;;;;;;16.65;76.31;100621.69;5045425;28;20529;-43
2021/07/11 04:09:49;;;;;;;3.30;2.92;;;;;;;16.66;75.99;100618.47;5044601;28;20045;-47
2021/07/11 04:12:15;;;;;;;4.60;2.47;;;;;;;16.68;75.88;100612.53;5041442;28;20123;-47
2021/07/11 04:14:43;;;;;;;2.47;2.28;;;;;;;16.68;75.81;100618.13;5027683;28;20553;-44
2021/07/11 04:17:10;;;;;;;4.32;2.28;;;;;;;16.68;75.62;100618.13;5025326;28;20514;-43
2021/07/11 04:19:42;;;;;;;2.95;2.58;;;;;;;16.67;75.40;100610.91;5047158;28;20053;-43
2021/07/11 04:22:15;;;;;;;4.72;3.30;;;;;;;16.65;75.39;100614.09;5040552;28;20064;-47
2021/07/11 04:24:44;;;;;;;4.03;2.75;;;;;;;16.63;75.38;100619.25;5040657;28;20041;-43
2021/07/11 04:27:12;;;;;;;3.15;2.70;;;;;;;16.60;75.35;100622.06;5047056;28;20131;-43
2021/07/11 04:29:40;;;;;;;4.55;3.38;;;;;;;16.58;75.44;100613.22;5045388;28;20409;-44
2021/07/11 04:32:09;;;;;;;4.82;2.78;;;;;;;16.59;75.19;100612.03;5043587;28;20041;-44
2021/07/11 04:34:37;;;;;;;3.97;2.63;;;;;;;16.58;75.12;100616.03;5047456;28;20175;-44
2021/07/11 04:37:06;;;;;;;4.07;2.50;;;;;;;16.60;75.09;100611.66;5045505;28;20048;-42
2021/07/11 04:39:34;;;;;;;6.43;4.30;;;;;;;16.65;74.83;100613.28;5043264;28;20513;-47
2021/07/11 04:42:02;;;;;;;3.33;2.97;;;;;;;16.64;74.67;100611.69;5041050;28;20070;-44
2021/07/11 04:44:28;;;;;;;2.85;2.47;;;;;;;16.62;74.61;100605.69;5042647;28;20153;-52
2021/07/11 04:46:58;;;;;;;3.80;2.50;;;;;;;16.59;74.60;100607.25;5048048;28;20056;-44
2021/07/11 04:49:26;;;;;;;3.78;2.35;;;;;;;16.57;74.76;100604.06;5043489;28;20099;-46
2021/07/11 04:51:54;;;;;;;3.35;2.03;;;;;;;16.54;74.88;100604.84;5043793;28;20486;-44
2021/07/11 04:54:21;;;;;;;4.10;2.38;;;;;;;16.56;74.89;100608.03;5044485;28;20160;-43
2021/07/11 04:56:48;;;;;;;6.05;2.58;;;;;;;16.57;74.77;100608.84;5044778;28;20056;-43
2021/07/11 04:59:15;;;;;;;4.90;2.42;;;;;;;16.53;75.01;100605.22;5045696;28;20051;-43
2021/07/11 05:01:42;;;;;;;6.32;3.03;;;;;;;16.49;74.86;100599.59;5042106;28;20049;-43
2021/07/11 05:04:12;;;;;;;5.95;3.25;;;;;;;16.42;75.07;100603.13;5046337;28;20054;-43
2021/07/11 05:06:44;;;;;;;3.85;3.15;;;;;;;16.41;75.29;100606.31;5026709;28;20048;-44
2021/07/11 05:09:12;;;;;;;5.10;3.20;;;;;;;16.41;75.35;100604.28;5040898;28;20138;-44
2021/07/11 05:11:45;;;;;;;3.70;3.33;;;;;;;16.37;75.52;100606.28;5026049;28;20183;-46
2021/07/11 05:14:13;;;;;;;4.43;3.25;;;;;;;16.34;75.60;100601.47;5046300;28;20044;-46
2021/07/11 05:16:40;;;;;;;5.80;3.78;;;;;;;16.29;75.94;100604.63;5044204;28;20044;-43
2021/07/11 05:19:07;;;;;;;4.28;3.67;;;;;;;16.27;76.19;100607.00;5044958;28;20119;-43
2021/07/11 05:21:34;;;;;;;6.03;3.88;;;;;;;16.24;76.50;100584.63;5044162;28;20041;-46
2021/07/11 05:24:05;;;;;;;6.88;3.80;;;;;;;16.19;76.86;100591.38;5041581;28;20386;-43
2021/07/11 05:26:34;;;;;;;7.22;4.30;;;;;;;16.21;76.82;100600.16;5041777;28;20056;-45
2021/07/11 05:29:01;;;;;;;6.72;4.13;;;;;;;16.18;77.06;100609.31;5042620;28;20084;-46
2021/07/11 05:31:28;;;;;;;5.55;4.07;;;;;;;16.16;77.44;100600.53;5044871;28;20056;-49
2021/07/11 05:33:56;;;;;;;6.65;4.43;;;;;;;16.15;77.56;100600.91;5027184;28;20148;-43
2021/07/11 05:36:23;;;;;;;7.07;4.57;;;;;;;16.13;77.66;100600.47;5041378;28;20049;-44
2021/07/11 05:38:50;;;;;;;8.70;4.68;;;;;;;16.13;77.78;100597.69;5045245;28;20088;-43
2021/07/11 05:41:17;;;;;;;7.05;3.78;;;;;;;16.14;77.81;100600.09;5039504;28;20061;-46
2021/07/11 05:43:44;;;;;;;6.97;4.38;;;;;;;16.20;77.75;100604.13;5044102;28;20094;-42
2021/07/11 05:46:11;;;;;;;6.30;4.13;;;;;;;16.22;77.72;100587.81;5038317;28;20053;-42
2021/07/11 05:48:39;;;;;;;8.50;4.43;;;;;;;16.25;77.71;100597.41;5042571;28;20513;-43
2021/07/11 05:51:06;;;;;;;6.90;4.20;;;;;;;16.24;77.78;100602.19;5041705;28;20565;-48
2021/07/11 05:53:36;;;;;;;8.07;4.38;;;;;;;16.21;77.55;100611.34;5041819;28;20493;-47
2021/07/11 05:56:02;;;;;;;8.63;4.03;;;;;;;16.20;77.79;100606.91;5040387;28;20129;-43
2021/07/11 05:58:29;;;;;;;8.50;4.88;;;;;;;16.21;77.72;100599.34;5025657;28;20466;-49
2021/07/11 06:00:56;;;;;;;7.38;3.55;;;;;;;16.21;77.50;100602.94;5044530;28;20059;-43
2021/07/11 06:03:23;;;;;;;7.78;3.80;;;;;;;16.23;77.37;100605.38;5042336;28;20134;-42
2021/07/11 06:05:49;;;;;;;6.35;3.45;;;;;;;16.27;77.29;100607.00;5043019;28;20056;-42
2021/07/11 06:08:16;;;;;;;5.30;3.85;;;;;;;16.33;77.23;100621.41;5024770;28;20068;-43
2021/07/11 06:10:46;;;;;;;8.00;3.83;;;;;;;16.31;77.34;100618.19;5030016;28;20140;-42
2021/07/11 06:13:12;;;;;;;6.72;4.03;;;;;;;16.32;77.19;100603.84;5046671;28;20052;-51
2021/07/11 06:15:39;;;;;;;6.32;3.63;;;;;;;16.28;77.22;100608.59;5030496;28;20052;-42
2021/07/11 06:18:10;;;;;;;8.75;3.75;;;;;;;16.27;77.44;100603.41;5048503;28;20126;-42
2021/07/11 06:20:40;;;;;;;4.78;4.15;;;;;;;16.26;77.33;100599.78;5049193;28;20048;-48
2021/07/11 06:23:08;;;;;;;10.45;4.88;;;;;;;16.28;77.41;100605.78;5046657;28;20063;-43
2021/07/11 06:25:35;;;;;;;11.77;4.80;;;;;;;16.30;77.35;100603.44;5047416;28;20403;-45
2021/07/11 06:28:03;;;;;;;5.25;4.18;;;;;;;16.33;77.47;100611.03;5048650;28;20463;-42
2021/07/11 06:30:33;;;;;;;10.27;4.30;;;;;;;16.33;77.65;100607.44;5032629;28;20079;-43
2021/07/11 06:33:01;;;;;;;7.95;4.05;;;;;;;16.33;77.69;100605.47;5047853;28;20501;-44
2021/07/11 06:35:28;;;;;;;5.57;3.58;;;;;;;16.36;77.59;100613.03;5047655;28;20417;-44
2021/07/11 06:37:54;;;;;;;6.93;4.35;;;;;;;16.44;77.56;100617.50;5045395;28;20063;-46
2021/07/11 06:40:25;;;;;;;6.13;3.70;;;;;;;16.59;77.47;100614.84;5047592;28;20138;-43
2021/07/11 06:42:52;;;;;;;5.82;3.60;;;;;;;16.73;77.30;100612.16;5047176;28;20151;-46
2021/07/11 06:45:21;;;;;;;4.88;3.63;;;;;;;16.88;77.22;100605.44;5048559;28;20056;-43
2021/07/11 06:47:48;;;;;;;5.47;3.80;;;;;;;17.02;76.77;100602.72;5048307;28;20067;-51
2021/07/11 06:50:16;;;;;;;4.97;3.35;;;;;;;17.20;76.61;100600.00;5048242;28;20110;-44
2021/07/11 06:52:44;;;;;;;4.28;2.88;;;;;;;17.27;76.27;100598.03;5048015;28;20168;-42
2021/07/11 06:55:11;;;;;;;3.60;2.85;;;;;;;17.27;75.92;100598.03;5047658;28;20056;-44
2021/07/11 06:57:39;;;;;;;4.75;3.17;;;;;;;17.26;75.78;100602.00;5047259;28;20094;-43
2021/07/11 07:00:10;;;;;;;3.47;3.08;;;;;;;17.32;75.25;100610.84;5047487;28;20134;-46
2021/07/11 07:02:40;;;;;;;7.18;3.20;;;;;;;17.41;75.25;100609.28;5047101;28;20382;-44
2021/07/11 07:05:08;;;;;;;4.95;3.05;;;;;;;17.54;75.13;100610.56;5047720;28;20963;-43
2021/07/11 07:07:36;;;;;;;5.55;2.90;;;;;;;17.63;75.05;100604.59;5045686;28;20128;-47
2021/07/11 07:10:09;;;;;;;4.13;3.65;;;;;;;17.78;74.60;100602.59;5045389;28;20060;-46
2021/07/11 07:12:37;;;;;;;3.80;2.63;;;;;;;17.91;74.88;100603.81;5047734;28;20825;-43
2021/07/11 07:15:06;;;;;;;6.63;2.78;;;;;;;17.97;74.49;100596.63;5047174;28;20511;-46
2021/07/11 07:17:33;;;;;;;2.97;2.75;;;;;;;18.01;74.25;100597.44;5048103;28;20057;-47
2021/07/11 07:20:02;;;;;;;6.45;3.25;;;;;;;18.06;73.91;100605.44;5047462;28;20118;-45
2021/07/11 07:22:29;;;;;;;3.67;2.70;;;;;;;18.03;73.33;100601.44;5046961;28;20622;-44
2021/07/11 07:24:55;;;;;;;3.95;3.00;;;;;;;18.03;73.13;100595.81;5047285;28;20062;-43
2021/07/11 07:27:23;;;;;;;3.05;2.55;;;;;;;18.08;72.86;100597.44;5046672;28;20061;-49
2021/07/11 07:29:50;;;;;;;4.35;2.38;;;;;;;18.09;72.34;100599.03;5048332;28;20413;-48
2021/07/11 07:32:18;;;;;;;4.90;3.40;;;;;;;18.14;71.95;100602.25;5028765;28;20049;-50
2021/07/11 07:34:44;;;;;;;3.85;2.83;;;;;;;18.16;71.50;100602.63;5048071;28;20106;-47
2021/07/11 07:37:11;;;;;;;7.97;3.15;;;;;;;18.20;71.06;100605.44;5048294;28;20518;-47
2021/07/11 07:39:38;;;;;;;5.65;3.03;;;;;;;18.18;70.82;100599.44;5046644;28;20064;-52
2021/07/11 07:42:05;;;;;;;5.32;2.38;;;;;;;18.24;70.86;100595.06;5047252;28;20498;-43
2021/07/11 07:44:33;;;;;;;4.15;3.00;;;;;;;18.38;71.58;100595.03;5046442;28;20383;-46
2021/07/11 07:47:02;;;;;;;6.80;2.92;;;;;;;18.49;72.36;100598.66;5044616;28;20045;-44
2021/07/11 07:49:29;;;;;;;6.30;4.65;;;;;;;18.48;71.95;100602.66;5023200;28;20064;-45
2021/07/11 07:51:56;;;;;;;5.80;2.85;;;;;;;18.38;71.73;100603.44;5040978;28;20056;-44
2021/07/11 07:54:22;;;;;;;2.95;2.65;;;;;;;18.30;71.75;100601.84;5038308;28;20052;-43
2021/07/11 07:56:51;;;;;;;5.75;3.05;;;;;;;18.29;71.52;100605.06;5039805;28;20067;-48
2021/07/11 07:59:19;;;;;;;5.93;2.83;;;;;;;18.21;71.59;100604.25;5036342;28;20521;-45
2021/07/11 08:01:46;;;;;;;4.88;3.08;;;;;;;18.22;71.98;100597.44;5035188;28;20049;-47
2021/07/11 08:04:13;;;;;;;8.02;3.45;;;;;;;18.47;72.03;100589.84;5042075;28;20053;-44
2021/07/11 08:06:39;;;;;;;5.70;3.92;;;;;;;18.81;72.38;100591.00;5039509;28;20063;-44
2021/07/11 08:09:06;;;;;;;9.18;3.05;;;;;;;18.91;71.77;100594.16;5038174;28;20061;-44
2021/07/11 08:11:34;;;;;;;6.63;3.20;;;;;;;18.70;71.20;100600.63;5039661;28;20049;-47
2021/07/11 08:14:00;;;;;;;8.45;5.07;;;;;;;18.50;71.15;100600.28;5044037;28;20055;-55
2021/07/11 08:16:27;;;;;;;12.10;3.63;;;;;;;18.38;71.30;100595.03;5025872;28;20041;-44
2021/07/11 08:18:54;;;;;;;10.70;4.05;;;;;;;18.23;71.83;100594.25;5044732;28;20045;-46
2021/07/11 08:21:22;;;;;;;15.38;6.30;;;;;;;18.16;72.31;100599.06;5037707;28;20057;-44
2021/07/11 08:23:49;;;;;;;9.85;4.03;;;;;;;17.98;73.13;100599.03;5046487;28;20158;-44
2021/07/11 08:26:17;;;;;;;12.35;4.35;;;;;;;17.90;73.48;100591.81;5043274;28;20211;-43
2021/07/11 08:28:43;;;;;;;9.98;4.30;;;;;;;17.87;73.87;100595.41;5042758;28;20057;-44
2021/07/11 08:31:10;;;;;;;10.25;4.10;;;;;;;17.83;74.03;100580.63;5034320;28;21988;-48
2021/07/11 08:33:37;;;;;;;10.05;4.85;;;;;;;17.81;74.41;100582.22;5040523;28;20049;-44
2021/07/11 08:36:04;;;;;;;10.02;3.88;;;;;;;17.80;74.59;100592.59;5042743;28;20390;-47
2021/07/11 08:38:34;;;;;;;8.52;3.70;;;;;;;17.72;74.59;100584.59;5021037;28;20064;-43
2021/07/11 08:41:01;;;;;;;8.38;3.92;;;;;;;17.66;74.48;100591.78;5042738;28;20378;-50
2021/07/11 08:43:29;;;;;;;4.53;3.10;;;;;;;17.61;74.67;100596.56;5039270;28;20053;-55
2021/07/11 08:45:57;;;;;;;7.47;3.22;;;;;;;17.63;74.65;100599.75;5041333;28;20057;-42
2021/07/11 08:48:24;;;;;;;8.35;3.67;;;;;;;17.73;74.51;100591.78;5022659;28;20084;-44
2021/07/11 08:50:50;;;;;;;10.52;5.65;;;;;;;17.85;75.04;100588.59;5044145;28;20062;-47
2021/07/11 08:53:18;;;;;;;8.63;4.38;;;;;;;18.11;74.99;100585.41;5040121;28;20059;-40
2021/07/11 08:55:45;;;;;;;8.52;3.25;;;;;;;18.28;74.60;100587.44;5045384;28;20064;-48
2021/07/11 08:58:13;;;;;;;6.68;3.38;;;;;;;18.44;74.62;100587.81;5038739;28;20041;-42
2021/07/11 09:00:43;;;;;;;6.63;3.28;;;;;;;18.53;74.28;100579.81;5046934;28;20047;-41
2021/07/11 09:03:13;;;;;;;7.30;4.20;;;;;;;18.69;73.78;100577.38;5040141;28;20745;-45
2021/07/11 09:05:42;;;;;;;7.80;2.88;;;;;;;18.80;73.14;100588.56;5039443;28;20565;-42
2021/07/11 09:08:19;;;;;;;9.45;3.75;;;;;;;18.75;72.37;100584.19;5043752;28;20085;-42
2021/07/11 09:10:48;;;;;;;11.02;3.55;;;;;;;18.64;72.77;100585.41;5044099;28;20049;-41
2021/07/11 09:13:17;;;;;;;7.65;3.53;;;;;;;18.59;72.60;100588.63;5037516;28;20052;-44
2021/07/11 09:15:50;;;;;;;8.80;3.95;;;;;;;18.48;72.64;100583.03;5039760;28;20126;-43
2021/07/11 09:18:27;;;;;;;7.38;4.00;;;;;;;18.43;72.87;100580.59;5046678;28;20179;-52
2021/07/11 09:20:57;;;;;;;8.32;4.78;;;;;;;18.32;72.88;100588.22;5039459;28;20151;-47
2021/07/11 09:23:26;;;;;;;9.60;4.25;;;;;;;18.21;73.33;100585.41;5044206;28;20076;-42
2021/07/11 09:26:08;;;;;;;10.98;5.10;;;;;;;18.09;73.54;100583.03;5039300;28;20048;-42
2021/07/11 09:28:37;;;;;;;13.13;4.97;;;;;;;18.05;73.79;100576.63;5036648;28;20045;-46
2021/07/11 09:31:13;;;;;;;12.40;4.68;;;;;;;17.99;73.89;100588.63;5038273;28;20393;-52
2021/07/11 09:33:44;;;;;;;10.82;5.10;;;;;;;17.93;74.09;100584.63;5040803;28;20084;-44
2021/07/11 09:36:19;;;;;;;10.82;4.90;;;;;;;17.88;74.41;100582.22;5039529;28;20049;-44
2021/07/11 09:39:00;;;;;;;9.98;5.28;;;;;;;17.90;74.38;100582.59;5040345;28;20088;-43
2021/07/11 09:41:30;;;;;;;8.90;4.20;;;;;;;17.84;74.04;100587.03;5037668;28;20053;-49
2021/07/11 09:43:59;;;;;;;19.67;6.75;;;;;;;17.83;74.31;100591.00;5042922;28;20620;-42
2021/07/11 09:46:28;;;;;;;17.83;5.72;;;;;;;17.87;74.28;100586.22;5041316;28;20486;-41
2021/07/11 09:48:56;;;;;;;9.45;5.53;;;;;;;17.95;74.29;100582.25;5027286;28;20132;-51
2021/07/11 09:51:25;;;;;;;15.65;7.03;;;;;;;17.99;74.38;100588.63;5042022;28;20071;-51
2021/07/11 09:53:54;;;;;;;9.48;5.00;;;;;;;18.02;74.31;100588.63;5040708;28;20436;-40
2021/07/11 09:56:37;;;;;;;14.02;5.22;;;;;;;18.00;74.55;100584.63;5041069;28;20141;-43
2021/07/11 09:59:07;;;;;;;8.27;5.13;;;;;;;17.88;74.32;100590.63;5025676;28;20048;-41
2021/07/11 10:01:35;;;;;;;7.60;4.70;;;;;;;17.75;74.49;100595.00;5034582;28;20057;-42
2021/07/11 10:04:03;;;;;;;14.95;5.18;;;;;;;17.60;74.83;100594.19;5039514;28;20130;-44
2021/07/11 10:06:31;;;;;;;10.68;4.97;;;;;;;17.53;75.03;100589.34;5036580;28;20053;-49
2021/07/11 10:08:59;;;;;;;6.38;4.05;;;;;;;17.58;74.95;100577.75;5038539;28;20156;-40
2021/07/11 10:11:28;;;;;;;8.32;4.35;;;;;;;17.70;74.90;100592.59;5049184;28;20077;-41
2021/07/11 10:13:56;;;;;;;7.50;4.32;;;;;;;17.76;75.15;100585.41;5038279;28;20704;-45
2021/07/11 10:16:24;;;;;;;9.55;6.07;;;;;;;17.84;75.13;100581.41;5038715;28;20053;-45
2021/07/11 10:19:00;;;;;;;13.20;4.88;;;;;;;17.94;75.49;100575.03;5036904;28;20053;-52
2021/07/11 10:21:33;;;;;;;8.20;4.60;;;;;;;18.02;75.41;100582.22;5041164;28;20048;-42
2021/07/11 10:24:01;;;;;;;12.48;4.40;;;;;;;18.03;75.25;100584.63;5043217;28;20060;-42
2021/07/11 10:26:40;;;;;;;14.80;5.05;;;;;;;17.93;76.25;100577.03;5040255;28;20076;-50
2021/07/11 10:29:17;;;;;;;14.82;5.47;;;;;;;17.87;76.34;100589.03;5041792;28;20059;-43
2021/07/11 10:31:52;;;;;;;13.63;5.43;;;;;;;17.81;76.16;100579.41;5038782;28;20078;-43
2021/07/11 10:34:31;;;;;;;14.35;5.45;;;;;;;17.72;76.79;100587.38;5041711;28;20572;-43
2021/07/11 10:37:10;;;;;;;24.17;6.60;;;;;;;17.57;77.22;100576.19;5042456;28;20048;-41
2021/07/11 10:39:37;;;;;;;10.30;4.50;;;;;;;17.48;77.00;100581.31;5038597;28;20041;-43
2021/07/11 10:42:09;;;;;;;11.90;4.78;;;;;;;17.31;77.40;100582.06;5037148;28;20057;-50
2021/07/11 10:44:36;;;;;;;8.73;3.95;;;;;;;17.26;77.27;100576.81;5036819;28;20120;-43
2021/07/11 10:47:06;;;;;;;8.35;4.47;;;;;;;17.12;77.87;100587.97;5037361;28;20060;-49
2021/07/11 10:49:35;;;;;;;7.00;4.15;;;;;;;17.07;77.90;100581.97;5037959;28;20504;-46
2021/07/11 10:52:08;;;;;;;7.88;4.05;;;;;;;16.99;78.78;100576.34;5042014;28;20053;-43
2021/07/11 10:54:50;;;;;;;11.75;5.28;;;;;;;16.96;79.12;100576.31;5039579;28;20075;-45
2021/07/11 10:57:29;;;;;;;9.05;4.70;;;;;;;17.03;79.64;100570.75;5039866;28;20049;-51
2021/07/11 11:00:15;;;;;;;8.30;5.05;;;;;;;17.00;79.63;100566.75;5038395;28;20056;-50
2021/07/11 11:02:45;;;;;;;10.85;5.18;;;;;;;17.07;78.59;100576.38;5042839;28;20140;-45
2021/07/11 11:05:20;;;;;;;10.73;5.38;;;;;;;17.05;78.96;100563.56;5037424;28;20130;-42
2021/07/11 11:08:13;;;;;;;8.73;5.57;;;;;;;17.11;79.71;100561.19;5038969;28;20045;-45
2021/07/11 11:10:42;;;;;;;9.68;4.75;;;;;;;17.21;78.91;100554.06;5039794;28;20053;-50
2021/07/11 11:13:15;;;;;;;9.55;4.80;;;;;;;17.24;78.95;100568.03;5035857;28;20099;-42
2021/07/11 11:15:48;;;;;;;7.80;4.80;;;;;;;17.19;79.41;100568.41;5038968;28;21406;-48
2021/07/11 11:18:22;;;;;;;13.63;4.78;;;;;;;17.18;79.10;100564.03;5038491;28;20060;-45
2021/07/11 11:21:11;;;;;;;12.35;4.97;;;;;;;17.08;79.53;100566.78;5037208;28;20750;-42
2021/07/11 11:23:46;;;;;;;6.13;3.78;;;;;;;16.98;79.43;100574.72;5037500;28;20528;-43
2021/07/11 11:26:26;;;;;;;12.35;3.53;;;;;;;16.93;79.47;100577.09;5040318;28;20504;-44
2021/07/11 11:28:57;;;;;;;7.25;3.83;;;;;;;16.89;79.32;100568.69;5039699;28;20514;-42
2021/07/11 11:31:24;;;;;;;8.13;4.30;;;;;;;16.95;79.30;100569.13;5037476;28;20746;-45